createdAt,value
2017-07-04T00:00:26.574Z,1011.7
2017-07-04T00:01:26.595Z,1011.72
2017-07-04T00:02:26.626Z,1011.72
2017-07-04T00:03:26.649Z,1011.68
2017-07-04T00:04:26.670Z,1011.68
2017-07-04T00:05:26.695Z,1011.63
2017-07-04T00:07:26.746Z,1011.61
2017-07-04T00:08:26.771Z,1011.68
2017-07-04T00:09:26.799Z,1011.66
2017-07-04T00:10:26.820Z,1011.6
2017-07-04T00:11:26.848Z,1011.6
2017-07-04T00:12:26.868Z,1011.55
2017-07-04T00:13:26.896Z,1011.5
2017-07-04T00:14:26.918Z,1011.52
2017-07-04T00:15:26.946Z,1011.52
2017-07-04T00:16:26.970Z,1011.5
2017-07-04T00:17:26.996Z,1011.5
2017-07-04T00:18:27.021Z,1011.47
2017-07-04T00:19:27.043Z,1011.47
2017-07-04T00:20:27.069Z,1011.44
2017-07-04T00:21:27.093Z,1011.45
2017-07-04T00:23:27.142Z,1011.43
2017-07-04T00:24:27.169Z,1011.38
2017-07-04T00:25:27.192Z,1011.41
2017-07-04T00:26:27.219Z,1011.47
2017-07-04T00:27:27.242Z,1011.46
2017-07-04T00:28:27.268Z,1011.54
2017-07-04T00:29:27.292Z,1011.54
2017-07-04T00:30:27.320Z,1011.54
2017-07-04T00:31:27.343Z,1011.55
2017-07-04T00:32:27.369Z,1011.6
2017-07-04T00:33:27.389Z,1011.59
2017-07-04T00:34:27.417Z,1011.56
2017-07-04T00:35:27.442Z,1011.6
2017-07-04T00:36:27.467Z,1011.5
2017-07-04T00:38:27.566Z,1011.53
2017-07-04T00:39:27.540Z,1011.48
2017-07-04T00:40:27.562Z,1011.56
2017-07-04T00:41:27.590Z,1011.53
2017-07-04T00:42:27.614Z,1011.47
2017-07-04T00:43:27.642Z,1011.47
2017-07-04T00:44:27.661Z,1011.47
2017-07-04T00:45:27.690Z,1011.43
2017-07-04T00:46:27.712Z,1011.42
2017-07-04T00:47:27.740Z,1011.45
2017-07-04T00:48:27.761Z,1011.45
2017-07-04T00:49:27.788Z,1011.4
2017-07-04T00:50:27.812Z,1011.4
2017-07-04T00:51:27.838Z,1011.44
2017-07-04T00:52:27.862Z,1011.46
2017-07-04T00:53:27.884Z,1011.42
2017-07-04T00:54:27.911Z,1011.45
2017-07-04T00:55:27.935Z,1011.48
2017-07-04T00:56:27.958Z,1011.45
2017-07-04T00:57:27.987Z,1011.46
2017-07-04T00:58:28.006Z,1011.48
2017-07-04T00:59:28.034Z,1011.47
2017-07-04T01:00:28.059Z,1011.44
2017-07-04T01:01:28.086Z,1011.42
2017-07-04T01:02:28.108Z,1011.48
2017-07-04T01:03:28.130Z,1011.45
2017-07-04T01:04:28.158Z,1011.48
2017-07-04T01:05:28.178Z,1011.52
2017-07-04T01:06:28.206Z,1011.53
2017-07-04T01:07:28.230Z,1011.47
2017-07-04T01:08:28.254Z,1011.55
2017-07-04T01:10:28.305Z,1011.62
2017-07-04T01:11:28.332Z,1011.64
2017-07-04T01:12:28.349Z,1011.66
2017-07-04T01:13:28.380Z,1011.67
2017-07-04T01:14:28.400Z,1011.71
2017-07-04T01:15:28.430Z,1011.73
2017-07-04T01:16:28.454Z,1011.67
2017-07-04T01:17:28.477Z,1011.74
2017-07-04T01:18:28.503Z,1011.76
2017-07-04T01:19:28.522Z,1011.7
2017-07-04T01:20:28.552Z,1011.71
2017-07-04T01:21:28.574Z,1011.71
2017-07-04T01:22:28.600Z,1011.75
2017-07-04T01:23:28.624Z,1011.72
2017-07-04T01:24:28.648Z,1011.71
2017-07-04T01:26:28.697Z,1011.73
2017-07-04T01:27:28.721Z,1011.69
2017-07-04T01:28:28.746Z,1011.73
2017-07-04T01:29:28.767Z,1011.7
2017-07-04T01:30:28.794Z,1011.62
2017-07-04T01:31:28.819Z,1011.7
2017-07-04T01:32:28.841Z,1011.69
2017-07-04T01:33:28.867Z,1011.69
2017-07-04T01:34:28.889Z,1011.75
2017-07-04T01:35:28.915Z,1011.76
2017-07-04T01:36:28.937Z,1011.78
2017-07-04T01:37:28.965Z,1011.78
2017-07-04T01:38:28.989Z,1011.79
2017-07-04T01:39:29.013Z,1011.74
2017-07-04T01:40:29.035Z,1011.78
2017-07-04T01:42:29.084Z,1011.72
2017-07-04T01:43:29.109Z,1011.73
2017-07-04T01:44:29.138Z,1011.78
2017-07-04T01:45:29.159Z,1011.72
2017-07-04T01:46:29.184Z,1011.74
2017-07-04T01:47:29.208Z,1011.76
2017-07-04T01:48:29.229Z,1011.72
2017-07-04T01:49:29.258Z,1011.73
2017-07-04T01:50:29.283Z,1011.74
2017-07-04T01:51:29.301Z,1011.71
2017-07-04T01:52:29.328Z,1011.71
2017-07-04T01:53:29.351Z,1011.66
2017-07-04T01:54:29.376Z,1011.72
2017-07-04T01:55:29.401Z,1011.67
2017-07-04T01:56:29.424Z,1011.73
2017-07-04T01:58:29.474Z,1011.69
2017-07-04T01:59:29.499Z,1011.72
2017-07-04T02:00:29.521Z,1011.7
2017-07-04T02:01:29.547Z,1011.75
2017-07-04T02:02:29.574Z,1011.75
2017-07-04T02:03:29.592Z,1011.72
2017-07-04T02:04:29.620Z,1011.72
2017-07-04T02:05:29.641Z,1011.73
2017-07-04T02:06:29.668Z,1011.78
2017-07-04T02:07:29.688Z,1011.76
2017-07-04T02:08:29.717Z,1011.77
2017-07-04T02:09:29.737Z,1011.8
2017-07-04T02:10:29.767Z,1011.78
2017-07-04T02:11:29.787Z,1011.81
2017-07-04T02:13:29.840Z,1011.81
2017-07-04T02:14:29.860Z,1011.81
2017-07-04T02:15:29.886Z,1011.79
2017-07-04T02:16:29.909Z,1011.78
2017-07-04T02:17:29.936Z,1011.83
2017-07-04T02:18:29.957Z,1011.86
2017-07-04T02:19:29.979Z,1011.83
2017-07-04T02:20:30.008Z,1011.81
2017-07-04T02:21:30.031Z,1011.85
2017-07-04T02:22:30.054Z,1011.84
2017-07-04T02:23:30.078Z,1011.83
2017-07-04T02:24:30.104Z,1011.84
2017-07-04T02:25:30.127Z,1011.86
2017-07-04T02:26:30.152Z,1011.91
2017-07-04T02:27:30.179Z,1011.84
2017-07-04T02:28:30.200Z,1011.89
2017-07-04T02:29:30.223Z,1011.83
2017-07-04T02:30:30.247Z,1011.81
2017-07-04T02:31:30.275Z,1011.83
2017-07-04T02:32:30.296Z,1011.81
2017-07-04T02:33:30.319Z,1011.8
2017-07-04T02:34:30.341Z,1011.82
2017-07-04T02:35:30.366Z,1011.77
2017-07-04T02:36:30.391Z,1011.81
2017-07-04T02:37:30.413Z,1011.82
2017-07-04T02:38:30.439Z,1011.81
2017-07-04T02:39:30.465Z,1011.82
2017-07-04T02:40:30.491Z,1011.87
2017-07-04T02:41:30.511Z,1011.86
2017-07-04T02:42:30.533Z,1011.83
2017-07-04T02:43:30.559Z,1011.88
2017-07-04T02:45:30.606Z,1011.82
2017-07-04T02:46:30.632Z,1011.74
2017-07-04T02:47:30.657Z,1011.73
2017-07-04T02:48:30.681Z,1011.75
2017-07-04T02:49:30.705Z,1011.76
2017-07-04T02:50:30.727Z,1011.8
2017-07-04T02:51:30.753Z,1011.78
2017-07-04T02:52:30.776Z,1011.76
2017-07-04T02:53:30.801Z,1011.71
2017-07-04T02:54:30.826Z,1011.8
2017-07-04T02:55:30.849Z,1011.8
2017-07-04T02:56:30.873Z,1011.75
2017-07-04T02:57:30.897Z,1011.77
2017-07-04T02:58:30.920Z,1011.77
2017-07-04T02:59:30.987Z,1011.74
2017-07-04T03:01:30.989Z,1011.75
2017-07-04T03:02:31.018Z,1011.75
2017-07-04T03:03:31.040Z,1011.74
2017-07-04T03:04:31.063Z,1011.78
2017-07-04T03:05:31.084Z,1011.81
2017-07-04T03:06:31.144Z,1011.8
2017-07-04T03:07:31.143Z,1011.79
2017-07-04T03:08:31.158Z,1011.79
2017-07-04T03:09:31.183Z,1011.82
2017-07-04T03:10:31.205Z,1011.83
2017-07-04T03:11:31.232Z,1011.9
2017-07-04T03:12:31.255Z,1011.9
2017-07-04T03:13:31.281Z,1011.89
2017-07-04T03:14:31.304Z,1011.95
2017-07-04T03:15:31.328Z,1011.93
2017-07-04T03:17:31.376Z,1011.89
2017-07-04T03:18:31.398Z,1011.91
2017-07-04T03:19:31.430Z,1011.91
2017-07-04T03:20:31.448Z,1011.91
2017-07-04T03:21:31.469Z,1011.92
2017-07-04T03:22:31.494Z,1011.92
2017-07-04T03:23:31.516Z,1011.89
2017-07-04T03:24:31.543Z,1011.91
2017-07-04T03:25:31.567Z,1011.91
2017-07-04T03:26:31.588Z,1011.94
2017-07-04T03:27:31.614Z,1011.92
2017-07-04T03:28:31.639Z,1011.93
2017-07-04T03:29:31.663Z,1012
2017-07-04T03:30:31.686Z,1012.02
2017-07-04T03:31:31.708Z,1012.01
2017-07-04T03:33:31.759Z,1011.97
2017-07-04T03:34:31.782Z,1011.99
2017-07-04T03:35:31.804Z,1011.98
2017-07-04T03:36:31.829Z,1012.02
2017-07-04T03:37:31.857Z,1011.96
2017-07-04T03:38:31.877Z,1011.99
2017-07-04T03:39:31.901Z,1011.9
2017-07-04T03:40:31.928Z,1011.93
2017-07-04T03:41:31.951Z,1011.93
2017-07-04T03:42:31.978Z,1011.98
2017-07-04T03:43:31.996Z,1012.03
2017-07-04T03:44:32.025Z,1012.06
2017-07-04T03:45:32.044Z,1012.07
2017-07-04T03:46:32.072Z,1012.06
2017-07-04T03:48:32.119Z,1012.12
2017-07-04T03:49:32.146Z,1012.06
2017-07-04T03:50:32.164Z,1012.13
2017-07-04T03:51:32.192Z,1012.13
2017-07-04T03:52:32.219Z,1012.11
2017-07-04T03:53:32.240Z,1012.09
2017-07-04T03:54:32.263Z,1012.12
2017-07-04T03:55:32.289Z,1012.13
2017-07-04T03:56:32.310Z,1012.15
2017-07-04T03:57:32.334Z,1012.18
2017-07-04T03:58:32.357Z,1012.13
2017-07-04T03:59:32.385Z,1012.19
2017-07-04T04:00:32.408Z,1012.18
2017-07-04T04:01:32.430Z,1012.18
2017-07-04T04:02:32.453Z,1012.15
2017-07-04T04:03:32.483Z,1012.11
2017-07-04T04:04:32.504Z,1012.17
2017-07-04T04:05:32.526Z,1012.18
2017-07-04T04:06:32.554Z,1012.23
2017-07-04T04:07:32.578Z,1012.23
2017-07-04T04:08:32.600Z,1012.2
2017-07-04T04:09:32.625Z,1012.18
2017-07-04T04:10:32.650Z,1012.26
2017-07-04T04:11:32.673Z,1012.2
2017-07-04T04:12:32.697Z,1012.23
2017-07-04T04:13:32.722Z,1012.2
2017-07-04T04:14:32.742Z,1012.18
2017-07-04T04:15:32.766Z,1012.21
2017-07-04T04:16:32.794Z,1012.18
2017-07-04T04:17:32.818Z,1012.22
2017-07-04T04:18:32.842Z,1012.23
2017-07-04T04:20:32.893Z,1012.22
2017-07-04T04:21:32.912Z,1012.25
2017-07-04T04:22:32.939Z,1012.26
2017-07-04T04:23:32.960Z,1012.22
2017-07-04T04:24:32.988Z,1012.26
2017-07-04T04:25:33.014Z,1012.27
2017-07-04T04:26:33.032Z,1012.36
2017-07-04T04:27:33.060Z,1012.3
2017-07-04T04:28:33.082Z,1012.37
2017-07-04T04:29:33.105Z,1012.4
2017-07-04T04:30:33.131Z,1012.39
2017-07-04T04:31:33.155Z,1012.45
2017-07-04T04:32:33.181Z,1012.44
2017-07-04T04:33:33.203Z,1012.44
2017-07-04T04:34:33.227Z,1012.47
2017-07-04T04:36:33.278Z,1012.45
2017-07-04T04:37:33.301Z,1012.47
2017-07-04T04:38:33.326Z,1012.47
2017-07-04T04:39:33.351Z,1012.46
2017-07-04T04:40:33.377Z,1012.49
2017-07-04T04:41:33.399Z,1012.5
2017-07-04T04:42:33.426Z,1012.47
2017-07-04T04:43:33.447Z,1012.42
2017-07-04T04:44:33.472Z,1012.48
2017-07-04T04:45:33.497Z,1012.55
2017-07-04T04:46:33.523Z,1012.5
2017-07-04T04:47:33.552Z,1012.51
2017-07-04T04:48:33.568Z,1012.48
2017-07-04T04:49:33.595Z,1012.51
2017-07-04T04:50:33.620Z,1012.53
2017-07-04T04:52:33.662Z,1012.49
2017-07-04T04:53:33.693Z,1012.47
2017-07-04T04:54:33.716Z,1012.5
2017-07-04T04:55:33.740Z,1012.6
2017-07-04T04:56:33.763Z,1012.62
2017-07-04T04:57:33.785Z,1012.62
2017-07-04T04:58:33.808Z,1012.62
2017-07-04T04:59:33.836Z,1012.54
2017-07-04T05:00:33.909Z,1012.63
2017-07-04T05:01:33.887Z,1012.65
2017-07-04T05:02:33.906Z,1012.73
2017-07-04T05:03:33.930Z,1012.66
2017-07-04T05:04:33.958Z,1012.63
2017-07-04T05:05:33.980Z,1012.66
2017-07-04T05:06:34.002Z,1012.67
2017-07-04T05:08:34.053Z,1012.57
2017-07-04T05:09:34.081Z,1012.7
2017-07-04T05:10:34.100Z,1012.77
2017-07-04T05:11:34.128Z,1012.72
2017-07-04T05:12:34.155Z,1012.74
2017-07-04T05:13:34.179Z,1012.69
2017-07-04T05:14:34.198Z,1012.75
2017-07-04T05:15:34.226Z,1012.73
2017-07-04T05:16:34.247Z,1012.73
2017-07-04T05:17:34.271Z,1012.75
2017-07-04T05:18:34.295Z,1012.81
2017-07-04T05:19:34.321Z,1012.8
2017-07-04T05:20:34.342Z,1012.81
2017-07-04T05:21:34.371Z,1012.81
2017-07-04T05:23:34.422Z,1012.83
2017-07-04T05:24:34.440Z,1012.85
2017-07-04T05:25:34.464Z,1012.81
2017-07-04T05:26:34.489Z,1012.84
2017-07-04T05:27:34.516Z,1012.89
2017-07-04T05:28:34.537Z,1012.84
2017-07-04T05:29:34.565Z,1012.85
2017-07-04T05:30:34.589Z,1012.97
2017-07-04T05:31:34.617Z,1012.92
2017-07-04T05:32:34.636Z,1013.28
2017-07-04T05:33:34.663Z,1012.93
2017-07-04T05:34:34.685Z,1012.92
2017-07-04T05:35:34.715Z,1012.94
2017-07-04T05:36:34.738Z,1012.85
2017-07-04T05:37:34.759Z,1012.89
2017-07-04T05:38:34.787Z,1012.87
2017-07-04T05:39:34.817Z,1012.94
2017-07-04T05:40:34.837Z,1013
2017-07-04T05:41:34.860Z,1013.04
2017-07-04T05:42:34.884Z,1013.03
2017-07-04T05:43:34.911Z,1012.92
2017-07-04T05:44:34.939Z,1012.9
2017-07-04T05:45:34.962Z,1012.92
2017-07-04T05:46:34.984Z,1012.92
2017-07-04T05:47:35.010Z,1012.97
2017-07-04T05:48:35.034Z,1012.98
2017-07-04T05:49:35.062Z,1013
2017-07-04T05:50:35.087Z,1013.44
2017-07-04T05:51:35.112Z,1013.06
2017-07-04T05:52:35.138Z,1013.6
2017-07-04T05:53:35.161Z,1013.36
2017-07-04T05:55:35.214Z,1013.08
2017-07-04T05:56:35.239Z,1013.06
2017-07-04T05:57:35.263Z,1013.11
2017-07-04T05:58:35.289Z,1013.1
2017-07-04T05:59:35.311Z,1013.25
2017-07-04T06:00:35.342Z,1013.22
2017-07-04T06:01:35.364Z,1013.18
2017-07-04T06:02:35.391Z,1013.18
2017-07-04T06:03:35.415Z,1013.25
2017-07-04T06:04:35.441Z,1013.15
2017-07-04T06:05:35.465Z,1013.23
2017-07-04T06:06:35.493Z,1013.19
2017-07-04T06:07:35.518Z,1013.14
2017-07-04T06:08:35.544Z,1013.2
2017-07-04T06:09:35.570Z,1013.18
2017-07-04T06:11:35.618Z,1013.18
2017-07-04T06:12:35.641Z,1013.17
2017-07-04T06:13:35.671Z,1013.21
2017-07-04T06:14:35.696Z,1013.21
2017-07-04T06:15:35.721Z,1013.2
2017-07-04T06:16:35.746Z,1013.28
2017-07-04T06:17:35.772Z,1013.24
2017-07-04T06:18:35.795Z,1013.26
2017-07-04T06:19:35.821Z,1013.25
2017-07-04T06:20:35.846Z,1013.34
2017-07-04T06:21:35.872Z,1013.21
2017-07-04T06:22:35.896Z,1013.29
2017-07-04T06:23:35.920Z,1013.33
2017-07-04T06:24:35.946Z,1013.31
2017-07-04T06:25:35.974Z,1013.28
2017-07-04T06:27:36.020Z,1013.38
2017-07-04T06:28:36.049Z,1013.4
2017-07-04T06:29:36.071Z,1013.42
2017-07-04T06:30:36.093Z,1013.59
2017-07-04T06:31:36.124Z,1013.33
2017-07-04T06:32:36.147Z,1013.44
2017-07-04T06:33:36.173Z,1013.43
2017-07-04T06:34:36.193Z,1013.51
2017-07-04T06:35:36.224Z,1013.49
2017-07-04T06:36:36.243Z,1013.94
2017-07-04T06:37:36.271Z,1014.4
2017-07-04T06:38:36.297Z,1013.82
2017-07-04T06:39:36.325Z,1014.36
2017-07-04T06:40:36.347Z,1014.41
2017-07-04T06:41:36.372Z,1013.58
2017-07-04T06:43:36.423Z,1013.56
2017-07-04T06:44:36.454Z,1013.5
2017-07-04T06:45:36.526Z,1013.3
2017-07-04T06:46:36.510Z,1013.63
2017-07-04T06:47:36.535Z,1014.38
2017-07-04T06:48:36.557Z,1014.47
2017-07-04T06:49:36.585Z,1014.43
2017-07-04T06:50:36.616Z,1013.62
2017-07-04T06:51:36.642Z,1013.95
2017-07-04T06:52:36.671Z,1013.65
2017-07-04T06:53:36.698Z,1013.56
2017-07-04T06:54:36.732Z,1013.63
2017-07-04T06:55:36.756Z,1013.54
2017-07-04T06:56:36.788Z,1013.56
2017-07-04T06:58:36.842Z,1013.56
2017-07-04T06:59:36.866Z,1013.5
2017-07-04T07:00:36.893Z,1013.52
2017-07-04T07:01:36.927Z,1014.57
2017-07-04T07:02:36.949Z,1014.59
2017-07-04T07:03:36.980Z,1014.71
2017-07-04T07:04:37.110Z,1014.73
2017-07-04T07:05:37.032Z,1013.7
2017-07-04T07:06:37.062Z,1013.68
2017-07-04T07:07:37.092Z,1014.63
2017-07-04T07:08:37.119Z,1013.69
2017-07-04T07:09:37.145Z,1013.76
2017-07-04T07:10:37.224Z,1013.67
2017-07-04T07:11:37.204Z,1013.71
2017-07-04T07:12:37.232Z,1013.73
2017-07-04T07:13:37.258Z,1013.65
2017-07-04T07:14:37.336Z,1013.59
2017-07-04T07:15:37.314Z,1013.66
2017-07-04T07:16:37.341Z,1013.73
2017-07-04T07:17:37.371Z,1013.77
2017-07-04T07:18:37.399Z,1013.69
2017-07-04T07:19:37.423Z,1013.74
2017-07-04T07:20:37.554Z,1013.75
2017-07-04T07:21:37.476Z,1013.77
2017-07-04T07:22:37.505Z,1013.77
2017-07-04T07:23:37.533Z,1013.76
2017-07-04T07:24:37.556Z,1013.85
2017-07-04T07:25:37.585Z,1013.75
2017-07-04T07:26:37.612Z,1013.74
2017-07-04T07:27:37.641Z,1013.78
2017-07-04T07:28:37.666Z,1013.81
2017-07-04T07:30:37.767Z,1015.51
2017-07-04T07:31:37.741Z,1013.84
2017-07-04T07:32:37.772Z,1013.78
2017-07-04T07:33:37.796Z,1013.74
2017-07-04T07:34:37.826Z,1013.85
2017-07-04T07:35:37.853Z,1013.85
2017-07-04T07:36:37.876Z,1013.83
2017-07-04T07:37:37.907Z,1013.83
2017-07-04T07:38:37.931Z,1013.8
2017-07-04T07:39:37.957Z,1013.85
2017-07-04T07:40:37.985Z,1014.72
2017-07-04T07:41:38.057Z,1014.26
2017-07-04T07:42:38.039Z,1013.9
2017-07-04T07:43:38.063Z,1013.9
2017-07-04T07:44:38.090Z,1013.99
2017-07-04T07:46:38.144Z,1013.89
2017-07-04T07:47:38.170Z,1013.86
2017-07-04T07:48:38.194Z,1013.88
2017-07-04T07:49:38.220Z,1014.39
2017-07-04T07:50:38.297Z,1014.41
2017-07-04T07:51:38.372Z,1014.46
2017-07-04T07:52:38.354Z,1014.01
2017-07-04T07:53:38.379Z,1013.97
2017-07-04T07:54:38.356Z,1014.46
2017-07-04T07:55:38.379Z,1014.45
2017-07-04T07:56:38.409Z,1014.17
2017-07-04T07:57:38.441Z,1014
2017-07-04T07:58:38.467Z,1014
2017-07-04T07:59:38.495Z,1014.01
2017-07-04T08:00:38.623Z,1013.98
2017-07-04T08:02:38.575Z,1013.91
2017-07-04T08:03:38.757Z,1014.13
2017-07-04T08:04:38.633Z,1013.94
2017-07-04T08:05:38.663Z,1013.94
2017-07-04T08:06:38.693Z,1014.07
2017-07-04T08:07:38.720Z,1013.98
2017-07-04T08:08:38.749Z,1013.91
2017-07-04T08:09:38.774Z,1013.96
2017-07-04T08:10:38.805Z,1014.58
2017-07-04T08:11:38.826Z,1013.97
2017-07-04T08:12:38.858Z,1013.94
2017-07-04T08:13:38.881Z,1013.96
2017-07-04T08:14:38.912Z,1014.44
2017-07-04T08:15:38.937Z,1014.01
2017-07-04T08:16:38.967Z,1013.91
2017-07-04T08:18:39.019Z,1014.27
2017-07-04T08:19:39.052Z,1014.62
2017-07-04T08:20:39.271Z,1014.56
2017-07-04T08:21:39.098Z,1014.54
2017-07-04T08:22:39.130Z,1014.61
2017-07-04T08:23:39.157Z,1014.59
2017-07-04T08:24:39.184Z,1014.6
2017-07-04T08:25:39.213Z,1014.56
2017-07-04T08:26:39.243Z,1014.54
2017-07-04T08:27:39.269Z,1014.58
2017-07-04T08:28:39.300Z,1014.64
2017-07-04T08:29:39.327Z,1014.59
2017-07-04T08:30:39.359Z,1014.59
2017-07-04T08:31:39.387Z,1014.57
2017-07-04T08:33:39.546Z,1014.67
2017-07-04T08:34:39.477Z,1014.64
2017-07-04T08:35:39.507Z,1014.62
2017-07-04T08:36:39.590Z,1014.26
2017-07-04T08:37:39.569Z,1014.21
2017-07-04T08:38:39.595Z,1014.58
2017-07-04T08:39:39.630Z,1014.18
2017-07-04T08:40:39.862Z,1014.18
2017-07-04T08:41:39.687Z,1014.17
2017-07-04T08:42:39.722Z,1014.61
2017-07-04T08:43:39.751Z,1014.31
2017-07-04T08:44:39.781Z,1014.17
2017-07-04T08:45:39.815Z,1014.21
2017-07-04T08:46:39.839Z,1014.19
2017-07-04T08:47:39.978Z,1014.16
2017-07-04T08:48:39.899Z,1014.26
2017-07-04T08:49:39.937Z,1014.32
2017-07-04T08:50:39.962Z,1014.19
2017-07-04T08:51:39.992Z,1014.85
2017-07-04T08:52:40.020Z,1014.86
2017-07-04T08:53:40.049Z,1014.74
2017-07-04T08:54:40.229Z,1014.61
2017-07-04T08:55:40.109Z,1014.53
2017-07-04T08:56:40.137Z,1014.47
2017-07-04T08:57:40.168Z,1014.41
2017-07-04T08:58:40.195Z,1014.47
2017-07-04T08:59:40.229Z,1014.46
2017-07-04T09:00:40.256Z,1014.41
2017-07-04T09:01:40.282Z,1014.48
2017-07-04T09:02:40.317Z,1014.48
2017-07-04T09:03:40.346Z,1014.34
2017-07-04T09:05:40.406Z,1014.32
2017-07-04T09:06:40.440Z,1014.29
2017-07-04T09:07:40.466Z,1014.25
2017-07-04T09:08:40.499Z,1014.25
2017-07-04T09:09:40.527Z,1014.35
2017-07-04T09:10:40.562Z,1014.32
2017-07-04T09:11:40.736Z,1014.31
2017-07-04T09:12:40.619Z,1014.34
2017-07-04T09:13:40.645Z,1014.4
2017-07-04T09:14:40.680Z,1014.4
2017-07-04T09:15:40.710Z,1014.44
2017-07-04T09:16:40.734Z,1014.32
2017-07-04T09:17:40.769Z,1014.31
2017-07-04T09:18:40.798Z,1014.38
2017-07-04T09:19:40.828Z,1014.32
2017-07-04T09:21:40.939Z,1014.4
2017-07-04T09:22:40.920Z,1014.42
2017-07-04T09:23:40.949Z,1014.37
2017-07-04T09:24:40.980Z,1014.44
2017-07-04T09:25:41.010Z,1014.3
2017-07-04T09:26:41.041Z,1014.4
2017-07-04T09:27:41.067Z,1014.41
2017-07-04T09:28:41.102Z,1014.4
2017-07-04T09:29:41.129Z,1014.42
2017-07-04T09:30:41.165Z,1014.42
2017-07-04T09:31:41.190Z,1014.42
2017-07-04T09:32:41.220Z,1014.46
2017-07-04T09:33:41.305Z,1014.41
2017-07-04T09:34:41.285Z,1014.51
2017-07-04T09:35:41.315Z,1014.5
2017-07-04T09:37:41.377Z,1014.42
2017-07-04T09:38:41.409Z,1014.48
2017-07-04T09:39:41.439Z,1014.47
2017-07-04T09:40:41.570Z,1014.48
2017-07-04T09:41:41.501Z,1014.48
2017-07-04T09:42:41.531Z,1014.44
2017-07-04T09:43:41.563Z,1014.44
2017-07-04T09:44:41.591Z,1014.5
2017-07-04T09:45:41.626Z,1014.5
2017-07-04T09:46:41.655Z,1014.46
2017-07-04T09:47:41.734Z,1014.55
2017-07-04T09:48:41.713Z,1014.45
2017-07-04T09:49:41.743Z,1014.59
2017-07-04T09:50:41.876Z,1014.62
2017-07-04T09:51:41.805Z,1014.58
2017-07-04T09:53:41.867Z,1014.62
2017-07-04T09:54:41.894Z,1014.6
2017-07-04T09:55:41.925Z,1014.58
2017-07-04T09:56:42.004Z,1014.57
2017-07-04T09:57:41.989Z,1014.53
2017-07-04T09:58:42.014Z,1014.54
2017-07-04T09:59:42.046Z,1014.54
2017-07-04T10:00:42.123Z,1014.58
2017-07-04T10:01:42.105Z,1014.64
2017-07-04T10:02:42.182Z,1014.49
2017-07-04T10:03:42.167Z,1014.49
2017-07-04T10:04:42.197Z,1014.54
2017-07-04T10:05:42.226Z,1014.59
2017-07-04T10:06:42.255Z,1014.57
2017-07-04T10:08:42.312Z,1014.57
2017-07-04T10:09:42.346Z,1014.5
2017-07-04T10:10:42.372Z,1014.58
2017-07-04T10:11:42.407Z,1014.51
2017-07-04T10:12:42.437Z,1014.55
2017-07-04T10:13:42.462Z,1014.5
2017-07-04T10:14:42.497Z,1014.56
2017-07-04T10:15:42.527Z,1014.59
2017-07-04T10:16:42.559Z,1014.64
2017-07-04T10:17:42.588Z,1014.56
2017-07-04T10:18:42.618Z,1014.56
2017-07-04T10:19:42.646Z,1014.63
2017-07-04T10:20:42.932Z,1014.62
2017-07-04T10:21:42.758Z,1014.62
2017-07-04T10:22:42.741Z,1014.62
2017-07-04T10:23:42.771Z,1014.66
2017-07-04T10:24:42.806Z,1014.67
2017-07-04T10:25:42.835Z,1014.62
2017-07-04T10:26:42.909Z,1014.65
2017-07-04T10:27:42.992Z,1014.61
2017-07-04T10:28:42.917Z,1014.63
2017-07-04T10:29:42.950Z,1014.64
2017-07-04T10:30:42.980Z,1014.65
2017-07-04T10:31:43.009Z,1014.57
2017-07-04T10:32:43.039Z,1014.63
2017-07-04T10:33:43.168Z,1014.66
2017-07-04T10:34:43.098Z,1014.59
2017-07-04T10:35:43.123Z,1014.63
2017-07-04T10:36:43.153Z,1014.6
2017-07-04T10:37:43.286Z,1014.62
2017-07-04T10:38:43.210Z,1014.52
2017-07-04T10:40:43.271Z,1014.56
2017-07-04T10:41:43.299Z,1014.51
2017-07-04T10:42:43.329Z,1014.51
2017-07-04T10:43:43.357Z,1014.55
2017-07-04T10:44:43.386Z,1014.5
2017-07-04T10:45:43.417Z,1014.64
2017-07-04T10:46:43.441Z,1014.65
2017-07-04T10:47:43.575Z,1014.55
2017-07-04T10:48:43.550Z,1014.59
2017-07-04T10:49:43.530Z,1014.68
2017-07-04T10:50:43.607Z,1014.6
2017-07-04T10:51:43.585Z,1014.57
2017-07-04T10:52:43.614Z,1014.52
2017-07-04T10:53:43.641Z,1014.57
2017-07-04T10:54:43.673Z,1014.53
2017-07-04T10:56:43.730Z,1014.56
2017-07-04T10:57:43.755Z,1014.48
2017-07-04T10:58:43.784Z,1014.47
2017-07-04T10:59:43.813Z,1014.49
2017-07-04T11:00:43.841Z,1014.52
2017-07-04T11:01:43.865Z,1014.45
2017-07-04T11:02:43.895Z,1014.42
2017-07-04T11:03:44.026Z,1014.4
2017-07-04T11:04:43.954Z,1014.46
2017-07-04T11:05:43.981Z,1014.51
2017-07-04T11:06:44.014Z,1014.41
2017-07-04T11:07:44.041Z,1014.44
2017-07-04T11:08:44.069Z,1014.48
2017-07-04T11:09:44.097Z,1014.42
2017-07-04T11:10:44.125Z,1014.41
2017-07-04T11:12:44.182Z,1014.4
2017-07-04T11:13:44.312Z,1014.39
2017-07-04T11:14:44.234Z,1014.4
2017-07-04T11:15:44.266Z,1014.42
2017-07-04T11:16:44.292Z,1014.48
2017-07-04T11:17:44.320Z,1014.45
2017-07-04T11:18:44.351Z,1014.43
2017-07-04T11:19:44.380Z,1014.49
2017-07-04T11:20:44.656Z,1014.53
2017-07-04T11:21:44.431Z,1014.53
2017-07-04T11:22:44.462Z,1014.52
2017-07-04T11:23:44.488Z,1014.5
2017-07-04T11:24:44.518Z,1014.51
2017-07-04T11:25:44.547Z,1014.45
2017-07-04T11:26:44.574Z,1014.47
2017-07-04T11:28:44.729Z,1014.5
2017-07-04T11:29:44.660Z,1014.43
2017-07-04T11:30:44.688Z,1014.48
2017-07-04T11:31:44.715Z,1014.5
2017-07-04T11:32:44.840Z,1014.55
2017-07-04T11:33:44.768Z,1014.45
2017-07-04T11:34:44.795Z,1014.48
2017-07-04T11:35:44.828Z,1014.42
2017-07-04T11:36:44.851Z,1014.45
2017-07-04T11:37:44.883Z,1014.44
2017-07-04T11:38:44.909Z,1014.44
2017-07-04T11:39:44.939Z,1014.53
2017-07-04T11:40:44.962Z,1014.4
2017-07-04T11:41:44.989Z,1014.48
2017-07-04T11:43:45.045Z,1014.5
2017-07-04T11:44:45.075Z,1014.49
2017-07-04T11:45:45.206Z,1014.52
2017-07-04T11:46:45.134Z,1014.44
2017-07-04T11:47:45.157Z,1014.45
2017-07-04T11:48:45.183Z,1014.49
2017-07-04T11:49:45.214Z,1014.46
2017-07-04T11:50:45.244Z,1014.45
2017-07-04T11:51:45.270Z,1014.46
2017-07-04T11:52:45.297Z,1014.47
2017-07-04T11:53:45.326Z,1014.53
2017-07-04T11:54:45.354Z,1014.4
2017-07-04T11:55:45.384Z,1014.46
2017-07-04T11:56:45.409Z,1014.44
2017-07-04T11:57:45.435Z,1014.51
2017-07-04T11:58:45.464Z,1014.53
2017-07-04T11:59:45.492Z,1014.51
2017-07-04T12:00:45.519Z,1014.5
2017-07-04T12:01:45.548Z,1014.57
2017-07-04T12:02:45.575Z,1014.53
2017-07-04T12:03:45.603Z,1014.59
2017-07-04T12:04:45.630Z,1014.5
2017-07-04T12:05:45.708Z,1014.52
2017-07-04T12:06:45.684Z,1014.54
2017-07-04T12:07:45.716Z,1014.55
2017-07-04T12:08:45.895Z,1014.54
2017-07-04T12:09:45.769Z,1014.62
2017-07-04T12:10:45.797Z,1014.59
2017-07-04T12:11:45.824Z,1014.64
2017-07-04T12:12:46.004Z,1014.57
2017-07-04T12:13:45.877Z,1014.58
2017-07-04T12:15:46.036Z,1014.54
2017-07-04T12:16:45.964Z,1014.61
2017-07-04T12:17:45.989Z,1014.68
2017-07-04T12:18:46.121Z,1014.6
2017-07-04T12:19:46.047Z,1014.64
2017-07-04T12:20:46.077Z,1014.58
2017-07-04T12:21:46.104Z,1014.54
2017-07-04T12:22:46.132Z,1014.68
2017-07-04T12:23:46.156Z,1014.66
2017-07-04T12:24:46.186Z,1014.59
2017-07-04T12:25:46.217Z,1014.57
2017-07-04T12:26:46.243Z,1014.54
2017-07-04T12:27:46.271Z,1014.59
2017-07-04T12:28:46.297Z,1014.6
2017-07-04T12:29:46.324Z,1014.65
2017-07-04T12:31:46.381Z,1014.63
2017-07-04T12:32:46.408Z,1014.54
2017-07-04T12:33:46.435Z,1014.52
2017-07-04T12:34:46.463Z,1014.56
2017-07-04T12:35:46.593Z,1014.6
2017-07-04T12:36:46.515Z,1014.59
2017-07-04T12:37:46.542Z,1014.69
2017-07-04T12:38:46.673Z,1014.64
2017-07-04T12:39:46.600Z,1014.54
2017-07-04T12:40:46.627Z,1014.58
2017-07-04T12:41:46.656Z,1014.61
2017-07-04T12:42:46.686Z,1014.61
2017-07-04T12:43:46.710Z,1014.6
2017-07-04T12:44:46.738Z,1014.66
2017-07-04T12:45:46.815Z,1014.63
2017-07-04T12:47:46.820Z,1014.6
2017-07-04T12:48:46.845Z,1014.61
2017-07-04T12:49:46.875Z,1014.57